sensor_id;sensor_type;location;lat;lon;timestamp;temperature;humidity
39675;DHT22;27790;50.840;4.386;2023-05-19T00:02:16;12.70;85.70
39675;DHT22;27790;50.840;4.386;2023-05-19T00:04:45;12.60;85.90
39675;DHT22;27790;50.840;4.386;2023-05-19T00:07:17;12.50;86.20
39675;DHT22;27790;50.840;4.386;2023-05-19T00:09:44;12.50;86.50
39675;DHT22;27790;50.840;4.386;2023-05-19T00:12:10;12.50;86.50
39675;DHT22;27790;50.840;4.386;2023-05-19T00:14:36;12.60;86.60
39675;DHT22;27790;50.840;4.386;2023-05-19T00:17:02;12.50;86.80
39675;DHT22;27790;50.840;4.386;2023-05-19T00:19:27;12.50;86.60
39675;DHT22;27790;50.840;4.386;2023-05-19T00:21:59;12.40;87.00
39675;DHT22;27790;50.840;4.386;2023-05-19T00:24:25;12.40;87.20
39675;DHT22;27790;50.840;4.386;2023-05-19T00:26:50;12.40;87.10
39675;DHT22;27790;50.840;4.386;2023-05-19T00:29:16;12.40;87.10
39675;DHT22;27790;50.840;4.386;2023-05-19T00:31:43;12.40;87.20
39675;DHT22;27790;50.840;4.386;2023-05-19T00:34:09;12.40;87.20
39675;DHT22;27790;50.840;4.386;2023-05-19T00:36:34;12.40;87.40
39675;DHT22;27790;50.840;4.386;2023-05-19T00:39:00;12.40;87.80
39675;DHT22;27790;50.840;4.386;2023-05-19T00:41:25;12.30;88.00
39675;DHT22;27790;50.840;4.386;2023-05-19T00:43:51;12.30;87.70
39675;DHT22;27790;50.840;4.386;2023-05-19T00:46:18;12.30;87.70
39675;DHT22;27790;50.840;4.386;2023-05-19T00:48:43;12.30;87.90
39675;DHT22;27790;50.840;4.386;2023-05-19T00:51:11;12.30;88.00
39675;DHT22;27790;50.840;4.386;2023-05-19T00:53:39;12.20;88.30
39675;DHT22;27790;50.840;4.386;2023-05-19T00:56:05;12.20;88.30
39675;DHT22;27790;50.840;4.386;2023-05-19T00:58:32;12.20;88.40
39675;DHT22;27790;50.840;4.386;2023-05-19T01:00:59;12.10;88.80
39675;DHT22;27790;50.840;4.386;2023-05-19T01:03:31;12.10;88.60
39675;DHT22;27790;50.840;4.386;2023-05-19T01:05:59;12.10;89.00
39675;DHT22;27790;50.840;4.386;2023-05-19T01:08:37;12.10;88.90
39675;DHT22;27790;50.840;4.386;2023-05-19T01:11:04;12.10;89.00
39675;DHT22;27790;50.840;4.386;2023-05-19T01:13:33;12.10;88.70
39675;DHT22;27790;50.840;4.386;2023-05-19T01:16:13;12.10;88.70
39675;DHT22;27790;50.840;4.386;2023-05-19T01:18:51;12.10;88.80
39675;DHT22;27790;50.840;4.386;2023-05-19T01:24:22;12.00;89.40
39675;DHT22;27790;50.840;4.386;2023-05-19T01:32:40;11.90;89.60
39675;DHT22;27790;50.840;4.386;2023-05-19T01:35:08;11.90;90.00
39675;DHT22;27790;50.840;4.386;2023-05-19T01:37:36;11.90;89.70
39675;DHT22;27790;50.840;4.386;2023-05-19T01:40:03;11.80;89.90
39675;DHT22;27790;50.840;4.386;2023-05-19T01:42:30;11.70;90.00
39675;DHT22;27790;50.840;4.386;2023-05-19T01:45:02;11.70;90.10
39675;DHT22;27790;50.840;4.386;2023-05-19T01:47:28;11.70;90.10
39675;DHT22;27790;50.840;4.386;2023-05-19T01:49:54;11.70;90.20
39675;DHT22;27790;50.840;4.386;2023-05-19T01:52:19;11.60;90.40
39675;DHT22;27790;50.840;4.386;2023-05-19T01:54:45;11.60;90.50
39675;DHT22;27790;50.840;4.386;2023-05-19T01:57:31;11.50;90.50
39675;DHT22;27790;50.840;4.386;2023-05-19T02:00:11;11.50;90.60
39675;DHT22;27790;50.840;4.386;2023-05-19T02:10:32;11.40;90.70
39675;DHT22;27790;50.840;4.386;2023-05-19T02:13:03;11.40;90.70
39675;DHT22;27790;50.840;4.386;2023-05-19T02:15:38;11.40;90.80
39675;DHT22;27790;50.840;4.386;2023-05-19T02:18:05;11.40;90.80
39675;DHT22;27790;50.840;4.386;2023-05-19T02:20:30;11.40;90.90
39675;DHT22;27790;50.840;4.386;2023-05-19T02:22:56;11.30;91.00
39675;DHT22;27790;50.840;4.386;2023-05-19T02:25:21;11.30;91.10
39675;DHT22;27790;50.840;4.386;2023-05-19T02:27:51;11.30;91.20
39675;DHT22;27790;50.840;4.386;2023-05-19T02:30:17;11.20;91.10
39675;DHT22;27790;50.840;4.386;2023-05-19T02:32:43;11.30;91.20
39675;DHT22;27790;50.840;4.386;2023-05-19T02:35:11;11.20;91.20
39675;DHT22;27790;50.840;4.386;2023-05-19T02:37:37;11.20;91.20
39675;DHT22;27790;50.840;4.386;2023-05-19T02:40:03;11.20;91.30
39675;DHT22;27790;50.840;4.386;2023-05-19T02:42:29;11.20;91.30
39675;DHT22;27790;50.840;4.386;2023-05-19T02:44:54;11.20;91.30
39675;DHT22;27790;50.840;4.386;2023-05-19T02:47:20;11.20;91.40
39675;DHT22;27790;50.840;4.386;2023-05-19T02:49:46;11.10;91.40
39675;DHT22;27790;50.840;4.386;2023-05-19T02:52:11;11.10;91.40
39675;DHT22;27790;50.840;4.386;2023-05-19T02:54:37;11.10;91.40
39675;DHT22;27790;50.840;4.386;2023-05-19T02:57:02;11.10;91.50
39675;DHT22;27790;50.840;4.386;2023-05-19T02:59:28;11.10;91.60
39675;DHT22;27790;50.840;4.386;2023-05-19T03:01:57;11.00;91.50
39675;DHT22;27790;50.840;4.386;2023-05-19T03:04:23;11.00;91.60
39675;DHT22;27790;50.840;4.386;2023-05-19T03:06:49;11.00;91.80
39675;DHT22;27790;50.840;4.386;2023-05-19T03:09:14;11.00;91.70
39675;DHT22;27790;50.840;4.386;2023-05-19T03:11:40;10.90;91.70
39675;DHT22;27790;50.840;4.386;2023-05-19T03:14:06;10.90;91.70
39675;DHT22;27790;50.840;4.386;2023-05-19T03:16:33;10.90;91.80
39675;DHT22;27790;50.840;4.386;2023-05-19T03:18:59;10.90;91.90
39675;DHT22;27790;50.840;4.386;2023-05-19T03:21:25;10.90;91.90
39675;DHT22;27790;50.840;4.386;2023-05-19T03:23:51;10.90;91.80
39675;DHT22;27790;50.840;4.386;2023-05-19T03:26:17;10.90;91.80
39675;DHT22;27790;50.840;4.386;2023-05-19T03:28:43;10.80;91.80
39675;DHT22;27790;50.840;4.386;2023-05-19T03:31:08;10.80;91.90
39675;DHT22;27790;50.840;4.386;2023-05-19T03:33:34;10.70;91.90
39675;DHT22;27790;50.840;4.386;2023-05-19T03:35:59;10.70;92.00
39675;DHT22;27790;50.840;4.386;2023-05-19T03:38:25;10.70;92.10
39675;DHT22;27790;50.840;4.386;2023-05-19T03:40:51;10.70;92.10
39675;DHT22;27790;50.840;4.386;2023-05-19T03:43:17;10.60;92.30
39675;DHT22;27790;50.840;4.386;2023-05-19T03:45:43;10.60;92.30
39675;DHT22;27790;50.840;4.386;2023-05-19T03:48:09;10.50;92.40
39675;DHT22;27790;50.840;4.386;2023-05-19T03:50:35;10.60;92.40
39675;DHT22;27790;50.840;4.386;2023-05-19T03:53:02;10.60;92.40
39675;DHT22;27790;50.840;4.386;2023-05-19T03:55:28;10.50;92.40
39675;DHT22;27790;50.840;4.386;2023-05-19T03:57:56;10.50;92.60
39675;DHT22;27790;50.840;4.386;2023-05-19T04:00:22;10.50;92.80
39675;DHT22;27790;50.840;4.386;2023-05-19T04:02:48;10.50;92.60
39675;DHT22;27790;50.840;4.386;2023-05-19T04:05:13;10.50;92.90
39675;DHT22;27790;50.840;4.386;2023-05-19T04:07:39;10.50;92.70
39675;DHT22;27790;50.840;4.386;2023-05-19T04:10:06;10.50;92.80
39675;DHT22;27790;50.840;4.386;2023-05-19T04:12:32;10.50;92.70
39675;DHT22;27790;50.840;4.386;2023-05-19T04:14:58;10.60;92.80
39675;DHT22;27790;50.840;4.386;2023-05-19T04:17:24;10.60;92.60
39675;DHT22;27790;50.840;4.386;2023-05-19T04:19:51;10.60;92.50
39675;DHT22;27790;50.840;4.386;2023-05-19T04:22:17;10.60;92.50
39675;DHT22;27790;50.840;4.386;2023-05-19T04:24:42;10.60;92.60
39675;DHT22;27790;50.840;4.386;2023-05-19T04:27:08;10.60;92.50
39675;DHT22;27790;50.840;4.386;2023-05-19T04:29:37;10.80;92.60
39675;DHT22;27790;50.840;4.386;2023-05-19T04:32:04;11.10;92.60
39675;DHT22;27790;50.840;4.386;2023-05-19T04:34:33;11.60;91.80
39675;DHT22;27790;50.840;4.386;2023-05-19T04:37:00;12.10;91.10
39675;DHT22;27790;50.840;4.386;2023-05-19T04:39:26;12.70;90.40
39675;DHT22;27790;50.840;4.386;2023-05-19T04:41:51;13.10;89.20
39675;DHT22;27790;50.840;4.386;2023-05-19T04:44:19;13.30;88.60
39675;DHT22;27790;50.840;4.386;2023-05-19T04:46:45;13.60;87.80
39675;DHT22;27790;50.840;4.386;2023-05-19T04:49:10;14.00;86.70
39675;DHT22;27790;50.840;4.386;2023-05-19T04:51:39;14.50;85.40
39675;DHT22;27790;50.840;4.386;2023-05-19T04:54:10;14.80;84.10
39675;DHT22;27790;50.840;4.386;2023-05-19T04:56:36;15.20;83.00
39675;DHT22;27790;50.840;4.386;2023-05-19T04:59:01;15.50;82.70
39675;DHT22;27790;50.840;4.386;2023-05-19T05:01:27;15.90;81.80
39675;DHT22;27790;50.840;4.386;2023-05-19T05:03:55;16.20;80.60
39675;DHT22;27790;50.840;4.386;2023-05-19T05:06:23;16.50;79.90
39675;DHT22;27790;50.840;4.386;2023-05-19T05:08:49;16.80;79.00
39675;DHT22;27790;50.840;4.386;2023-05-19T05:11:15;17.00;78.00
39675;DHT22;27790;50.840;4.386;2023-05-19T05:13:41;17.10;77.80
39675;DHT22;27790;50.840;4.386;2023-05-19T05:16:07;17.20;77.60
39675;DHT22;27790;50.840;4.386;2023-05-19T05:18:34;17.40;77.20
39675;DHT22;27790;50.840;4.386;2023-05-19T05:21:01;17.40;77.00
39675;DHT22;27790;50.840;4.386;2023-05-19T05:23:27;17.70;76.80
39675;DHT22;27790;50.840;4.386;2023-05-19T05:25:53;17.80;75.90
39675;DHT22;27790;50.840;4.386;2023-05-19T05:28:19;17.70;76.10
39675;DHT22;27790;50.840;4.386;2023-05-19T05:30:45;17.30;76.70
39675;DHT22;27790;50.840;4.386;2023-05-19T05:33:10;16.90;77.80
39675;DHT22;27790;50.840;4.386;2023-05-19T05:35:36;16.50;78.50
39675;DHT22;27790;50.840;4.386;2023-05-19T05:38:02;16.20;79.50
39675;DHT22;27790;50.840;4.386;2023-05-19T05:40:28;16.10;79.90
39675;DHT22;27790;50.840;4.386;2023-05-19T05:42:54;16.20;80.10
39675;DHT22;27790;50.840;4.386;2023-05-19T05:45:21;16.20;80.80
39675;DHT22;27790;50.840;4.386;2023-05-19T05:47:47;16.00;80.00
39675;DHT22;27790;50.840;4.386;2023-05-19T05:50:13;15.70;80.80
39675;DHT22;27790;50.840;4.386;2023-05-19T05:52:40;15.60;82.10
39675;DHT22;27790;50.840;4.386;2023-05-19T05:55:08;15.30;81.70
39675;DHT22;27790;50.840;4.386;2023-05-19T05:57:34;15.00;82.30
39675;DHT22;27790;50.840;4.386;2023-05-19T06:00:00;14.80;83.00
39675;DHT22;27790;50.840;4.386;2023-05-19T06:02:26;14.90;84.00
39675;DHT22;27790;50.840;4.386;2023-05-19T06:04:52;14.90;83.40
39675;DHT22;27790;50.840;4.386;2023-05-19T06:07:18;14.80;84.10
39675;DHT22;27790;50.840;4.386;2023-05-19T06:09:44;14.60;84.00
39675;DHT22;27790;50.840;4.386;2023-05-19T06:12:10;14.40;84.30
39675;DHT22;27790;50.840;4.386;2023-05-19T06:14:36;14.30;85.00
39675;DHT22;27790;50.840;4.386;2023-05-19T06:17:01;14.10;85.70
39675;DHT22;27790;50.840;4.386;2023-05-19T06:19:27;14.00;86.50
39675;DHT22;27790;50.840;4.386;2023-05-19T06:21:53;14.20;86.10
39675;DHT22;27790;50.840;4.386;2023-05-19T06:24:18;14.50;85.50
39675;DHT22;27790;50.840;4.386;2023-05-19T06:26:44;14.70;84.70
39675;DHT22;27790;50.840;4.386;2023-05-19T06:29:09;14.70;84.40
39675;DHT22;27790;50.840;4.386;2023-05-19T06:31:35;14.60;84.50
39675;DHT22;27790;50.840;4.386;2023-05-19T06:34:01;14.40;85.00
39675;DHT22;27790;50.840;4.386;2023-05-19T06:36:27;14.40;85.60
39675;DHT22;27790;50.840;4.386;2023-05-19T06:38:52;14.40;85.70
39675;DHT22;27790;50.840;4.386;2023-05-19T06:41:18;14.30;86.00
39675;DHT22;27790;50.840;4.386;2023-05-19T06:43:43;14.50;86.10
39675;DHT22;27790;50.840;4.386;2023-05-19T06:46:09;14.90;86.00
39675;DHT22;27790;50.840;4.386;2023-05-19T06:48:37;15.80;84.10
39675;DHT22;27790;50.840;4.386;2023-05-19T06:51:03;16.70;82.50
39675;DHT22;27790;50.840;4.386;2023-05-19T06:53:29;17.70;79.90
39675;DHT22;27790;50.840;4.386;2023-05-19T06:55:54;18.50;76.90
39675;DHT22;27790;50.840;4.386;2023-05-19T06:58:20;19.00;75.40
39675;DHT22;27790;50.840;4.386;2023-05-19T07:00:46;19.50;74.90
39675;DHT22;27790;50.840;4.386;2023-05-19T07:03:11;20.00;74.10
39675;DHT22;27790;50.840;4.386;2023-05-19T07:05:37;20.40;72.50
39675;DHT22;27790;50.840;4.386;2023-05-19T07:08:03;20.70;72.20
39675;DHT22;27790;50.840;4.386;2023-05-19T07:10:29;21.10;71.10
39675;DHT22;27790;50.840;4.386;2023-05-19T07:12:55;21.40;70.30
39675;DHT22;27790;50.840;4.386;2023-05-19T07:15:20;21.60;71.10
39675;DHT22;27790;50.840;4.386;2023-05-19T07:17:46;21.90;69.20
39675;DHT22;27790;50.840;4.386;2023-05-19T07:20:12;21.60;69.30
39675;DHT22;27790;50.840;4.386;2023-05-19T07:22:37;21.60;69.10
39675;DHT22;27790;50.840;4.386;2023-05-19T07:25:05;21.20;69.60
39675;DHT22;27790;50.840;4.386;2023-05-19T07:27:31;21.20;71.00
39675;DHT22;27790;50.840;4.386;2023-05-19T07:29:57;21.40;71.30
39675;DHT22;27790;50.840;4.386;2023-05-19T07:32:23;21.70;70.60
39675;DHT22;27790;50.840;4.386;2023-05-19T07:34:48;21.90;69.20
39675;DHT22;27790;50.840;4.386;2023-05-19T07:37:14;22.20;69.00
39675;DHT22;27790;50.840;4.386;2023-05-19T07:39:40;22.20;67.80
39675;DHT22;27790;50.840;4.386;2023-05-19T07:42:06;22.00;68.60
39675;DHT22;27790;50.840;4.386;2023-05-19T07:44:32;22.20;69.50
39675;DHT22;27790;50.840;4.386;2023-05-19T07:46:59;22.30;68.30
39675;DHT22;27790;50.840;4.386;2023-05-19T07:49:25;22.30;68.10
39675;DHT22;27790;50.840;4.386;2023-05-19T07:51:51;22.30;68.20
39675;DHT22;27790;50.840;4.386;2023-05-19T07:54:17;22.40;67.80
39675;DHT22;27790;50.840;4.386;2023-05-19T07:56:42;22.20;68.70
39675;DHT22;27790;50.840;4.386;2023-05-19T07:59:08;22.20;68.10
39675;DHT22;27790;50.840;4.386;2023-05-19T08:01:34;22.20;68.10
39675;DHT22;27790;50.840;4.386;2023-05-19T08:03:59;22.50;67.50
39675;DHT22;27790;50.840;4.386;2023-05-19T08:06:25;22.40;68.10
39675;DHT22;27790;50.840;4.386;2023-05-19T08:08:50;22.30;68.00
39675;DHT22;27790;50.840;4.386;2023-05-19T08:11:16;22.50;67.90
39675;DHT22;27790;50.840;4.386;2023-05-19T08:13:42;22.50;67.60
39675;DHT22;27790;50.840;4.386;2023-05-19T08:16:08;22.80;67.00
39675;DHT22;27790;50.840;4.386;2023-05-19T08:18:33;22.90;67.40
39675;DHT22;27790;50.840;4.386;2023-05-19T08:20:59;23.00;66.90
39675;DHT22;27790;50.840;4.386;2023-05-19T08:23:25;23.30;66.80
39675;DHT22;27790;50.840;4.386;2023-05-19T08:25:51;23.30;65.90
39675;DHT22;27790;50.840;4.386;2023-05-19T08:28:17;23.30;66.00
39675;DHT22;27790;50.840;4.386;2023-05-19T08:30:42;23.60;65.90
39675;DHT22;27790;50.840;4.386;2023-05-19T08:33:08;24.10;66.80
39675;DHT22;27790;50.840;4.386;2023-05-19T08:35:33;24.30;64.40
39675;DHT22;27790;50.840;4.386;2023-05-19T08:37:59;24.30;64.20
39675;DHT22;27790;50.840;4.386;2023-05-19T08:40:25;24.60;64.00
39675;DHT22;27790;50.840;4.386;2023-05-19T08:42:53;24.60;64.60
39675;DHT22;27790;50.840;4.386;2023-05-19T08:45:18;24.90;62.80
39675;DHT22;27790;50.840;4.386;2023-05-19T08:47:45;24.70;62.40
39675;DHT22;27790;50.840;4.386;2023-05-19T08:50:13;24.60;62.30
39675;DHT22;27790;50.840;4.386;2023-05-19T08:55:41;25.30;61.80
39675;DHT22;27790;50.840;4.386;2023-05-19T08:58:08;25.60;61.20
39675;DHT22;27790;50.840;4.386;2023-05-19T09:00:35;25.60;60.70
39675;DHT22;27790;50.840;4.386;2023-05-19T09:03:01;26.00;60.40
39675;DHT22;27790;50.840;4.386;2023-05-19T09:05:28;26.20;59.10
39675;DHT22;27790;50.840;4.386;2023-05-19T09:07:54;26.10;59.20
39675;DHT22;27790;50.840;4.386;2023-05-19T09:10:20;25.90;59.40
39675;DHT22;27790;50.840;4.386;2023-05-19T09:12:46;25.30;59.30
39675;DHT22;27790;50.840;4.386;2023-05-19T09:15:12;24.90;59.90
39675;DHT22;27790;50.840;4.386;2023-05-19T09:17:40;24.40;60.40
39675;DHT22;27790;50.840;4.386;2023-05-19T09:20:07;24.60;61.00
39675;DHT22;27790;50.840;4.386;2023-05-19T09:22:46;24.40;61.20
39675;DHT22;27790;50.840;4.386;2023-05-19T09:25:19;23.70;61.60
39675;DHT22;27790;50.840;4.386;2023-05-19T09:27:47;23.30;64.30
39675;DHT22;27790;50.840;4.386;2023-05-19T09:30:15;22.80;63.20
39675;DHT22;27790;50.840;4.386;2023-05-19T09:32:41;22.40;63.20
39675;DHT22;27790;50.840;4.386;2023-05-19T09:35:07;21.80;64.70
39675;DHT22;27790;50.840;4.386;2023-05-19T09:37:33;21.30;65.60
39675;DHT22;27790;50.840;4.386;2023-05-19T09:39:58;20.80;66.10
39675;DHT22;27790;50.840;4.386;2023-05-19T09:42:25;20.40;66.70
39675;DHT22;27790;50.840;4.386;2023-05-19T09:45:02;20.00;67.20
39675;DHT22;27790;50.840;4.386;2023-05-19T09:47:37;19.60;68.50
39675;DHT22;27790;50.840;4.386;2023-05-19T09:50:08;19.40;69.50
39675;DHT22;27790;50.840;4.386;2023-05-19T09:52:39;19.40;67.90
39675;DHT22;27790;50.840;4.386;2023-05-19T09:55:08;19.40;68.30
39675;DHT22;27790;50.840;4.386;2023-05-19T09:57:35;19.20;66.40
39675;DHT22;27790;50.840;4.386;2023-05-19T10:00:09;19.10;67.00
39675;DHT22;27790;50.840;4.386;2023-05-19T10:02:46;18.80;67.90
39675;DHT22;27790;50.840;4.386;2023-05-19T10:05:13;18.40;66.90
39675;DHT22;27790;50.840;4.386;2023-05-19T10:07:43;18.50;67.70
39675;DHT22;27790;50.840;4.386;2023-05-19T10:10:13;18.60;68.70
39675;DHT22;27790;50.840;4.386;2023-05-19T10:12:40;18.70;70.50
39675;DHT22;27790;50.840;4.386;2023-05-19T10:15:14;18.80;69.20
39675;DHT22;27790;50.840;4.386;2023-05-19T10:17:41;18.70;69.10
39675;DHT22;27790;50.840;4.386;2023-05-19T10:20:08;18.70;68.70
39675;DHT22;27790;50.840;4.386;2023-05-19T10:22:36;18.80;69.10
39675;DHT22;27790;50.840;4.386;2023-05-19T10:25:03;19.00;69.10
39675;DHT22;27790;50.840;4.386;2023-05-19T10:27:29;19.10;69.20
39675;DHT22;27790;50.840;4.386;2023-05-19T10:29:59;19.00;69.10
39675;DHT22;27790;50.840;4.386;2023-05-19T10:32:29;19.20;69.70
39675;DHT22;27790;50.840;4.386;2023-05-19T10:40:35;19.60;67.40
39675;DHT22;27790;50.840;4.386;2023-05-19T10:45:50;19.50;69.40
39675;DHT22;27790;50.840;4.386;2023-05-19T10:48:19;19.70;69.70
39675;DHT22;27790;50.840;4.386;2023-05-19T10:50:51;19.50;67.20
39675;DHT22;27790;50.840;4.386;2023-05-19T10:53:18;19.40;69.80
39675;DHT22;27790;50.840;4.386;2023-05-19T11:01:11;19.20;67.40
39675;DHT22;27790;50.840;4.386;2023-05-19T11:06:27;19.10;68.60
39675;DHT22;27790;50.840;4.386;2023-05-19T11:11:19;19.40;67.90
39675;DHT22;27790;50.840;4.386;2023-05-19T11:13:53;19.70;69.40
39675;DHT22;27790;50.840;4.386;2023-05-19T11:16:30;20.00;67.90
39675;DHT22;27790;50.840;4.386;2023-05-19T11:18:59;20.20;69.40
39675;DHT22;27790;50.840;4.386;2023-05-19T11:21:49;20.30;67.80
39675;DHT22;27790;50.840;4.386;2023-05-19T11:26:57;20.20;66.40
39675;DHT22;27790;50.840;4.386;2023-05-19T11:29:23;20.00;66.70
39675;DHT22;27790;50.840;4.386;2023-05-19T11:31:50;19.90;65.30
39675;DHT22;27790;50.840;4.386;2023-05-19T11:34:16;19.70;66.50
39675;DHT22;27790;50.840;4.386;2023-05-19T11:36:43;19.50;66.00
39675;DHT22;27790;50.840;4.386;2023-05-19T11:39:10;19.50;65.40
39675;DHT22;27790;50.840;4.386;2023-05-19T11:41:38;19.40;65.30
39675;DHT22;27790;50.840;4.386;2023-05-19T11:44:09;19.20;66.70
39675;DHT22;27790;50.840;4.386;2023-05-19T11:46:35;19.20;66.00
39675;DHT22;27790;50.840;4.386;2023-05-19T11:49:03;19.40;67.30
39675;DHT22;27790;50.840;4.386;2023-05-19T11:51:29;19.60;67.60
39675;DHT22;27790;50.840;4.386;2023-05-19T11:53:56;19.80;66.20
39675;DHT22;27790;50.840;4.386;2023-05-19T11:56:22;19.90;64.80
39675;DHT22;27790;50.840;4.386;2023-05-19T11:58:48;20.10;66.20
39675;DHT22;27790;50.840;4.386;2023-05-19T12:01:13;20.10;65.00
39675;DHT22;27790;50.840;4.386;2023-05-19T12:03:39;20.10;64.60
39675;DHT22;27790;50.840;4.386;2023-05-19T12:06:05;19.90;65.20
39675;DHT22;27790;50.840;4.386;2023-05-19T12:08:33;19.80;65.50
39675;DHT22;27790;50.840;4.386;2023-05-19T12:10:59;19.70;65.80
39675;DHT22;27790;50.840;4.386;2023-05-19T12:13:24;19.80;66.20
39675;DHT22;27790;50.840;4.386;2023-05-19T12:15:50;19.90;64.80
39675;DHT22;27790;50.840;4.386;2023-05-19T12:18:18;19.80;65.50
39675;DHT22;27790;50.840;4.386;2023-05-19T12:20:45;19.70;66.70
39675;DHT22;27790;50.840;4.386;2023-05-19T12:23:11;19.90;66.40
39675;DHT22;27790;50.840;4.386;2023-05-19T12:25:36;19.80;65.70
39675;DHT22;27790;50.840;4.386;2023-05-19T12:28:02;19.80;65.70
39675;DHT22;27790;50.840;4.386;2023-05-19T12:30:29;19.90;67.80
39675;DHT22;27790;50.840;4.386;2023-05-19T12:32:55;20.10;65.80
39675;DHT22;27790;50.840;4.386;2023-05-19T12:35:31;20.20;65.60
39675;DHT22;27790;50.840;4.386;2023-05-19T12:38:06;20.10;66.80
39675;DHT22;27790;50.840;4.386;2023-05-19T12:40:35;20.20;64.50
39675;DHT22;27790;50.840;4.386;2023-05-19T12:43:01;20.20;63.40
39675;DHT22;27790;50.840;4.386;2023-05-19T12:45:27;20.30;63.70
39675;DHT22;27790;50.840;4.386;2023-05-19T12:47:53;20.40;64.60
39675;DHT22;27790;50.840;4.386;2023-05-19T12:50:19;20.50;64.60
39675;DHT22;27790;50.840;4.386;2023-05-19T12:52:46;20.50;64.00
39675;DHT22;27790;50.840;4.386;2023-05-19T12:55:12;20.60;64.10
39675;DHT22;27790;50.840;4.386;2023-05-19T12:57:48;20.60;64.50
39675;DHT22;27790;50.840;4.386;2023-05-19T13:00:22;20.50;64.10
39675;DHT22;27790;50.840;4.386;2023-05-19T13:03:07;20.60;64.00
39675;DHT22;27790;50.840;4.386;2023-05-19T13:05:37;20.60;64.00
39675;DHT22;27790;50.840;4.386;2023-05-19T13:08:05;20.60;65.00
39675;DHT22;27790;50.840;4.386;2023-05-19T13:10:32;20.40;64.00
39675;DHT22;27790;50.840;4.386;2023-05-19T13:12:58;20.10;63.60
39675;DHT22;27790;50.840;4.386;2023-05-19T13:15:30;19.90;64.60
39675;DHT22;27790;50.840;4.386;2023-05-19T13:17:59;19.90;63.90
39675;DHT22;27790;50.840;4.386;2023-05-19T13:20:25;19.90;65.80
39675;DHT22;27790;50.840;4.386;2023-05-19T13:22:50;20.10;63.60
39675;DHT22;27790;50.840;4.386;2023-05-19T13:25:16;20.10;63.90
39675;DHT22;27790;50.840;4.386;2023-05-19T13:27:44;20.10;64.20
39675;DHT22;27790;50.840;4.386;2023-05-19T13:30:11;20.20;63.80
39675;DHT22;27790;50.840;4.386;2023-05-19T13:32:37;20.10;63.90
39675;DHT22;27790;50.840;4.386;2023-05-19T13:35:03;20.10;63.20
39675;DHT22;27790;50.840;4.386;2023-05-19T13:37:29;20.20;64.50
39675;DHT22;27790;50.840;4.386;2023-05-19T13:39:54;20.20;61.70
39675;DHT22;27790;50.840;4.386;2023-05-19T13:42:22;20.30;63.10
39675;DHT22;27790;50.840;4.386;2023-05-19T13:44:47;20.30;63.00
39675;DHT22;27790;50.840;4.386;2023-05-19T13:47:13;20.00;63.80
39675;DHT22;27790;50.840;4.386;2023-05-19T13:49:39;20.00;64.80
39675;DHT22;27790;50.840;4.386;2023-05-19T13:52:06;20.00;64.80
39675;DHT22;27790;50.840;4.386;2023-05-19T13:54:32;20.10;64.30
39675;DHT22;27790;50.840;4.386;2023-05-19T13:56:58;20.00;63.70
39675;DHT22;27790;50.840;4.386;2023-05-19T13:59:27;19.80;64.60
39675;DHT22;27790;50.840;4.386;2023-05-19T14:01:52;19.80;64.10
39675;DHT22;27790;50.840;4.386;2023-05-19T14:04:18;19.80;64.20
39675;DHT22;27790;50.840;4.386;2023-05-19T14:06:45;19.80;63.70
39675;DHT22;27790;50.840;4.386;2023-05-19T14:09:14;19.80;64.30
39675;DHT22;27790;50.840;4.386;2023-05-19T14:11:40;19.70;65.20
39675;DHT22;27790;50.840;4.386;2023-05-19T14:14:05;19.70;64.50
39675;DHT22;27790;50.840;4.386;2023-05-19T14:16:31;19.60;64.60
39675;DHT22;27790;50.840;4.386;2023-05-19T14:18:57;19.70;65.40
39675;DHT22;27790;50.840;4.386;2023-05-19T14:21:23;19.80;64.40
39675;DHT22;27790;50.840;4.386;2023-05-19T14:23:49;19.80;63.70
39675;DHT22;27790;50.840;4.386;2023-05-19T14:26:14;19.90;63.90
39675;DHT22;27790;50.840;4.386;2023-05-19T14:28:40;19.90;64.20
39675;DHT22;27790;50.840;4.386;2023-05-19T14:31:10;20.00;64.40
39675;DHT22;27790;50.840;4.386;2023-05-19T14:33:36;20.10;64.00
39675;DHT22;27790;50.840;4.386;2023-05-19T14:36:02;20.10;62.60
39675;DHT22;27790;50.840;4.386;2023-05-19T14:38:29;20.10;63.90
39675;DHT22;27790;50.840;4.386;2023-05-19T14:40:55;20.20;62.80
39675;DHT22;27790;50.840;4.386;2023-05-19T14:43:21;20.40;62.90
39675;DHT22;27790;50.840;4.386;2023-05-19T14:45:46;20.50;63.00
39675;DHT22;27790;50.840;4.386;2023-05-19T14:48:12;20.70;63.60
39675;DHT22;27790;50.840;4.386;2023-05-19T14:50:38;20.70;63.20
39675;DHT22;27790;50.840;4.386;2023-05-19T14:53:04;20.70;63.60
39675;DHT22;27790;50.840;4.386;2023-05-19T14:55:29;20.70;62.00
39675;DHT22;27790;50.840;4.386;2023-05-19T14:57:55;20.70;62.00
39675;DHT22;27790;50.840;4.386;2023-05-19T15:00:21;20.50;62.50
39675;DHT22;27790;50.840;4.386;2023-05-19T15:02:47;20.40;63.10
39675;DHT22;27790;50.840;4.386;2023-05-19T15:05:13;20.30;63.20
39675;DHT22;27790;50.840;4.386;2023-05-19T15:07:39;20.30;62.80
39675;DHT22;27790;50.840;4.386;2023-05-19T15:10:05;20.20;63.10
39675;DHT22;27790;50.840;4.386;2023-05-19T15:12:31;20.20;62.00
39675;DHT22;27790;50.840;4.386;2023-05-19T15:14:57;20.20;63.40
39675;DHT22;27790;50.840;4.386;2023-05-19T15:17:22;20.20;63.50
39675;DHT22;27790;50.840;4.386;2023-05-19T15:19:48;20.30;63.60
39675;DHT22;27790;50.840;4.386;2023-05-19T15:22:13;20.20;62.40
39675;DHT22;27790;50.840;4.386;2023-05-19T15:24:39;20.10;62.20
39675;DHT22;27790;50.840;4.386;2023-05-19T15:27:06;20.10;61.70
39675;DHT22;27790;50.840;4.386;2023-05-19T15:29:32;20.10;61.70
39675;DHT22;27790;50.840;4.386;2023-05-19T15:31:57;20.10;62.70
39675;DHT22;27790;50.840;4.386;2023-05-19T15:34:23;20.10;61.60
39675;DHT22;27790;50.840;4.386;2023-05-19T15:36:49;20.10;61.90
39675;DHT22;27790;50.840;4.386;2023-05-19T15:39:14;20.10;62.00
39675;DHT22;27790;50.840;4.386;2023-05-19T15:41:40;20.20;61.50
39675;DHT22;27790;50.840;4.386;2023-05-19T15:44:06;20.20;61.60
39675;DHT22;27790;50.840;4.386;2023-05-19T15:46:32;20.30;62.10
39675;DHT22;27790;50.840;4.386;2023-05-19T15:48:58;20.40;61.50
39675;DHT22;27790;50.840;4.386;2023-05-19T15:51:24;20.50;60.90
39675;DHT22;27790;50.840;4.386;2023-05-19T15:53:49;20.60;60.60
39675;DHT22;27790;50.840;4.386;2023-05-19T15:56:15;20.50;60.90
39675;DHT22;27790;50.840;4.386;2023-05-19T15:58:41;20.30;61.30
39675;DHT22;27790;50.840;4.386;2023-05-19T16:01:07;20.10;61.40
39675;DHT22;27790;50.840;4.386;2023-05-19T16:03:32;20.00;61.90
39675;DHT22;27790;50.840;4.386;2023-05-19T16:05:58;20.10;61.80
39675;DHT22;27790;50.840;4.386;2023-05-19T16:08:25;20.20;61.80
39675;DHT22;27790;50.840;4.386;2023-05-19T16:10:51;20.20;61.30